createdAt,value
2018-02-21T00:02:21.470Z,53.42
2018-02-21T00:04:58.605Z,50.55
2018-02-21T00:07:28.604Z,49.60
2018-02-21T00:10:00.639Z,54.55
2018-02-21T00:12:31.400Z,52.92
2018-02-21T00:15:01.095Z,47.67
2018-02-21T00:17:32.098Z,45.22
2018-02-21T00:20:01.828Z,44.67
2018-02-21T00:22:32.243Z,47.10
2018-02-21T00:25:04.131Z,44.75
2018-02-21T00:27:34.344Z,44.85
2018-02-21T00:30:06.780Z,44.00
2018-02-21T00:32:37.734Z,43.35
2018-02-21T00:35:07.671Z,43.83
2018-02-21T00:37:38.375Z,41.97
2018-02-21T00:40:08.074Z,42.17
2018-02-21T00:42:37.855Z,40.20
2018-02-21T00:45:07.983Z,41.45
2018-02-21T00:47:39.450Z,40.35
2018-02-21T00:50:12.627Z,42.55
2018-02-21T00:52:44.051Z,39.42
2018-02-21T00:55:17.229Z,40.50
2018-02-21T00:57:47.250Z,40.00
2018-02-21T01:00:16.875Z,41.33
2018-02-21T01:02:46.872Z,41.88
2018-02-21T01:05:17.513Z,48.03
2018-02-21T01:07:47.589Z,44.95
2018-02-21T01:10:17.524Z,50.35
2018-02-21T01:12:47.849Z,44.53
2018-02-21T01:15:20.928Z,43.97
2018-02-21T01:17:53.136Z,46.55
2018-02-21T01:20:24.750Z,43.47
2018-02-21T01:22:56.270Z,48.13
2018-02-21T01:25:26.417Z,41.33
2018-02-21T01:27:58.521Z,42.40
2018-02-21T01:30:29.057Z,43.78
2018-02-21T01:33:00.392Z,42.03
2018-02-21T01:35:33.273Z,44.75
2018-02-21T01:38:04.047Z,42.30
2018-02-21T01:40:34.633Z,42.55
2018-02-21T01:43:07.065Z,42.55
2018-02-21T01:45:37.354Z,43.17
2018-02-21T01:48:07.942Z,39.45
2018-02-21T01:50:47.429Z,42.80
2018-02-21T01:53:17.372Z,38.65
2018-02-21T01:55:48.183Z,40.85
2018-02-21T01:58:19.684Z,40.83
2018-02-21T02:00:49.643Z,38.10
2018-02-21T02:03:20.590Z,37.67
2018-02-21T02:05:51.423Z,38.20
2018-02-21T02:08:22.343Z,37.38
2018-02-21T02:10:52.383Z,36.78
2018-02-21T02:13:22.687Z,37.65
2018-02-21T02:15:57.942Z,40.45
2018-02-21T02:18:28.992Z,36.85
2018-02-21T02:21:02.038Z,36.90
2018-02-21T02:23:31.747Z,37.58
2018-02-21T02:26:01.611Z,36.80
2018-02-21T02:28:34.265Z,36.40
2018-02-21T02:31:04.506Z,37.90
2018-02-21T02:33:34.899Z,35.13
2018-02-21T02:36:04.602Z,38.38
2018-02-21T02:38:50.830Z,35.95
2018-02-21T02:41:21.259Z,37.53
2018-02-21T02:43:51.145Z,34.90
2018-02-21T02:46:21.910Z,37.75
2018-02-21T02:48:51.574Z,37.75
2018-02-21T02:51:22.040Z,38.58
2018-02-21T02:53:52.939Z,37.33
2018-02-21T02:56:23.070Z,35.13
2018-02-21T02:58:52.995Z,35.13
2018-02-21T03:01:22.909Z,34.65
2018-02-21T03:03:56.077Z,38.10
2018-02-21T03:06:27.029Z,37.00
2018-02-21T03:08:58.885Z,34.50
2018-02-21T03:11:30.517Z,35.50
2018-02-21T03:14:00.199Z,36.00
2018-02-21T03:16:29.757Z,34.00
2018-02-21T03:19:01.397Z,33.92
2018-02-21T03:21:41.327Z,34.60
2018-02-21T03:24:10.904Z,33.97
2018-02-21T03:26:40.819Z,34.05
2018-02-21T03:29:10.601Z,32.50
2018-02-21T03:31:40.321Z,32.92
2018-02-21T03:34:09.786Z,33.35
2018-02-21T03:36:39.903Z,31.42
2018-02-21T03:39:10.081Z,32.35
2018-02-21T03:41:39.786Z,30.50
2018-02-21T03:44:10.704Z,32.42
2018-02-21T03:46:40.217Z,31.75
2018-02-21T03:49:10.056Z,31.50
2018-02-21T03:51:39.598Z,31.15
2018-02-21T03:54:09.009Z,31.70
2018-02-21T03:56:39.246Z,30.88
2018-02-21T03:59:08.853Z,31.10
2018-02-21T04:01:39.049Z,31.02
2018-02-21T04:04:08.806Z,30.80
2018-02-21T04:06:38.535Z,31.58
2018-02-21T04:09:08.959Z,29.50
2018-02-21T04:11:38.442Z,32.50
2018-02-21T04:14:08.160Z,30.85
2018-02-21T04:16:38.286Z,30.10
2018-02-21T04:19:08.068Z,30.05
2018-02-21T04:21:38.119Z,31.58
2018-02-21T04:24:08.178Z,30.10
2018-02-21T04:26:37.991Z,30.40
2018-02-21T04:29:07.915Z,32.08
2018-02-21T04:31:37.571Z,30.30
2018-02-21T04:34:07.875Z,31.25
2018-02-21T04:36:37.884Z,30.70
2018-02-21T04:39:07.586Z,31.60
2018-02-21T04:41:37.559Z,30.40
2018-02-21T04:44:07.658Z,31.77
2018-02-21T04:46:37.386Z,30.08
2018-02-21T04:49:07.236Z,28.70
2018-02-21T04:51:37.405Z,30.08
2018-02-21T04:54:08.655Z,28.05
2018-02-21T04:56:38.421Z,29.55
2018-02-21T04:59:08.359Z,30.40
2018-02-21T05:01:38.430Z,32.25
2018-02-21T05:04:08.080Z,33.95
2018-02-21T05:06:38.303Z,34.83
2018-02-21T05:09:10.848Z,35.72
2018-02-21T05:11:40.451Z,35.55
2018-02-21T05:14:10.408Z,33.80
2018-02-21T05:16:40.253Z,35.22
2018-02-21T05:19:10.053Z,38.78
2018-02-21T05:21:39.654Z,35.28
2018-02-21T05:24:09.826Z,35.30
2018-02-21T05:26:39.671Z,33.75
2018-02-21T05:30:12.936Z,36.40
2018-02-21T05:32:42.907Z,36.05
2018-02-21T05:35:13.759Z,34.75
2018-02-21T05:37:43.230Z,36.20
2018-02-21T05:40:12.860Z,36.20
2018-02-21T05:42:42.253Z,35.67
2018-02-21T05:45:12.094Z,37.25
2018-02-21T05:47:41.772Z,34.90
2018-02-21T05:50:11.945Z,36.60
2018-02-21T05:52:41.807Z,35.45
2018-02-21T05:55:11.205Z,35.60
2018-02-21T05:57:40.807Z,32.97
2018-02-21T06:00:11.189Z,33.67
2018-02-21T06:02:41.634Z,34.58
2018-02-21T06:05:11.419Z,34.65
2018-02-21T06:07:41.389Z,34.25
2018-02-21T06:10:11.563Z,36.08
2018-02-21T06:12:41.919Z,34.72
2018-02-21T06:15:14.862Z,33.28
2018-02-21T06:17:44.826Z,33.13
2018-02-21T06:20:17.154Z,31.90
2018-02-21T06:22:51.612Z,32.83
2018-02-21T06:25:22.299Z,33.03
2018-02-21T06:27:54.762Z,33.75
2018-02-21T06:30:25.990Z,33.35
2018-02-21T06:32:56.784Z,33.45
2018-02-21T06:35:27.948Z,33.85
2018-02-21T06:37:59.137Z,33.42
2018-02-21T06:40:29.075Z,34.22
2018-02-21T06:42:59.210Z,33.80
2018-02-21T06:45:28.921Z,37.38
2018-02-21T06:47:59.093Z,38.00
2018-02-21T06:50:28.704Z,33.97
2018-02-21T06:52:58.213Z,36.65
2018-02-21T06:55:29.806Z,35.88
2018-02-21T06:57:59.826Z,38.00
2018-02-21T07:00:29.592Z,35.55
2018-02-21T07:02:59.482Z,34.75
2018-02-21T07:05:30.515Z,33.15
2018-02-21T07:08:03.667Z,36.45
2018-02-21T07:10:33.752Z,35.03
2018-02-21T07:13:03.266Z,34.92
2018-02-21T07:15:32.855Z,33.55
2018-02-21T07:18:03.181Z,33.80
2018-02-21T07:20:33.430Z,33.30
2018-02-21T07:23:04.741Z,33.10
2018-02-21T07:25:35.268Z,34.25
2018-02-21T07:28:06.900Z,34.42
2018-02-21T07:30:37.021Z,32.20
2018-02-21T07:33:07.155Z,32.30
2018-02-21T07:35:36.987Z,30.65
2018-02-21T07:38:06.971Z,30.80
2018-02-21T07:40:36.885Z,30.83
2018-02-21T07:43:07.020Z,31.95
2018-02-21T07:45:37.547Z,31.30
2018-02-21T07:48:07.159Z,30.60
2018-02-21T07:50:36.713Z,28.90
2018-02-21T07:53:06.878Z,32.40
2018-02-21T07:55:36.713Z,30.48
2018-02-21T07:58:06.500Z,30.48
2018-02-21T08:00:36.767Z,30.33
2018-02-21T08:03:07.097Z,29.35
2018-02-21T08:05:36.977Z,32.00
2018-02-21T08:08:07.906Z,29.60
2018-02-21T08:10:37.624Z,29.63
2018-02-21T08:13:08.307Z,29.23
2018-02-21T08:15:38.372Z,28.90
2018-02-21T08:18:09.092Z,28.87
2018-02-21T08:20:38.666Z,30.00
2018-02-21T08:23:08.633Z,29.45
2018-02-21T08:25:38.636Z,29.55
2018-02-21T08:28:09.157Z,29.25
2018-02-21T08:30:39.726Z,27.55
2018-02-21T08:33:10.003Z,30.20
2018-02-21T08:35:39.561Z,30.90
2018-02-21T08:38:09.561Z,31.80
2018-02-21T08:40:39.210Z,32.47
2018-02-21T08:43:08.848Z,26.73
2018-02-21T08:45:39.444Z,26.27
2018-02-21T08:48:09.421Z,23.50
2018-02-21T08:50:39.373Z,27.37
2018-02-21T08:53:09.303Z,27.65
2018-02-21T08:55:38.778Z,27.42
2018-02-21T08:58:08.280Z,25.85
2018-02-21T09:00:38.376Z,23.77
2018-02-21T09:03:08.629Z,28.40
2018-02-21T09:05:38.114Z,31.75
2018-02-21T09:08:08.668Z,27.05
2018-02-21T09:10:38.250Z,27.87
2018-02-21T09:13:07.752Z,25.33
2018-02-21T09:15:37.551Z,23.85
2018-02-21T09:18:07.470Z,24.75
2018-02-21T09:20:37.460Z,25.70
2018-02-21T09:23:07.321Z,25.40
2018-02-21T09:25:37.026Z,24.45
2018-02-21T09:28:06.956Z,24.15
2018-02-21T09:30:36.752Z,27.70
2018-02-21T09:33:07.471Z,26.08
2018-02-21T09:35:39.271Z,25.52
2018-02-21T09:38:10.494Z,25.50
2018-02-21T09:40:40.194Z,28.20
2018-02-21T09:43:10.256Z,25.25
2018-02-21T09:45:40.186Z,26.17
2018-02-21T09:48:09.636Z,25.33
2018-02-21T09:50:39.800Z,25.75
2018-02-21T09:53:10.092Z,24.90
2018-02-21T09:55:39.528Z,25.08
2018-02-21T09:58:09.113Z,25.10
2018-02-21T10:00:38.982Z,27.05
2018-02-21T10:03:08.434Z,27.45
2018-02-21T10:05:38.240Z,27.23
2018-02-21T10:08:08.549Z,29.92
2018-02-21T10:10:38.078Z,30.27
2018-02-21T10:13:08.229Z,29.02
2018-02-21T10:15:38.266Z,30.80
2018-02-21T10:18:07.785Z,28.83
2018-02-21T10:20:37.402Z,29.05
2018-02-21T10:23:08.082Z,28.80
2018-02-21T10:25:37.784Z,31.37
2018-02-21T10:28:08.098Z,27.48
2018-02-21T10:30:37.860Z,30.40
2018-02-21T10:33:09.835Z,29.12
2018-02-21T10:35:39.303Z,30.88
2018-02-21T10:38:09.434Z,31.85
2018-02-21T10:40:39.080Z,30.60
2018-02-21T10:43:09.238Z,33.55
2018-02-21T10:45:39.338Z,32.38
2018-02-21T10:48:09.450Z,33.80
2018-02-21T10:50:39.229Z,33.75
2018-02-21T10:53:09.012Z,33.65
2018-02-21T10:55:38.832Z,34.20
2018-02-21T10:58:08.482Z,37.35
2018-02-21T11:00:42.715Z,34.83
2018-02-21T11:03:12.801Z,36.00
2018-02-21T11:05:42.387Z,34.45
2018-02-21T11:08:12.075Z,32.67
2018-02-21T11:10:42.412Z,34.15
2018-02-21T11:13:12.399Z,35.55
2018-02-21T11:15:41.912Z,33.13
2018-02-21T11:18:12.674Z,34.10
2018-02-21T11:20:42.474Z,33.05
2018-02-21T11:23:12.275Z,39.90
2018-02-21T11:25:43.061Z,34.33
2018-02-21T11:28:12.640Z,35.10
2018-02-21T11:30:42.099Z,34.88
2018-02-21T11:33:11.645Z,33.95
2018-02-21T11:35:41.543Z,34.92
2018-02-21T11:38:11.140Z,35.53
2018-02-21T11:40:42.652Z,30.75
2018-02-21T11:43:12.683Z,31.35
2018-02-21T11:45:42.199Z,29.65
2018-02-21T11:48:12.064Z,32.17
2018-02-21T11:50:41.584Z,29.27
2018-02-21T11:53:11.261Z,31.05
2018-02-21T11:55:41.858Z,28.77
2018-02-21T11:58:11.565Z,27.05
2018-02-21T12:00:41.088Z,28.08
2018-02-21T12:03:10.632Z,27.13
2018-02-21T12:05:40.057Z,26.92
2018-02-21T12:08:09.931Z,31.00
2018-02-21T12:10:40.351Z,26.15
2018-02-21T12:13:09.829Z,25.45
2018-02-21T12:15:39.358Z,25.25
2018-02-21T12:18:08.847Z,26.12
2018-02-21T12:20:38.265Z,25.33
2018-02-21T12:23:07.739Z,23.08
2018-02-21T12:25:38.486Z,22.05
2018-02-21T12:28:08.225Z,23.40
2018-02-21T12:30:37.874Z,26.35
2018-02-21T12:33:07.546Z,25.25
2018-02-21T12:35:37.625Z,21.50
2018-02-21T12:38:07.381Z,19.50
2018-02-21T12:40:41.136Z,19.20
2018-02-21T12:43:11.016Z,21.90
2018-02-21T12:45:40.889Z,22.93
2018-02-21T12:48:10.386Z,26.73
2018-02-21T12:50:40.170Z,24.33
2018-02-21T12:53:09.701Z,23.03
2018-02-21T12:55:39.149Z,23.77
2018-02-21T12:58:08.581Z,25.70
2018-02-21T13:00:38.022Z,27.00
2018-02-21T13:03:07.568Z,26.07
2018-02-21T13:05:37.380Z,22.63
2018-02-21T13:08:06.938Z,23.90
2018-02-21T13:10:36.527Z,23.07
2018-02-21T13:13:06.717Z,21.03
2018-02-21T13:15:36.290Z,21.60
2018-02-21T13:18:07.268Z,22.27
2018-02-21T13:20:37.177Z,21.43
2018-02-21T13:23:06.949Z,22.30
2018-02-21T13:25:38.604Z,23.10
2018-02-21T13:28:10.580Z,22.70
2018-02-21T13:30:40.208Z,22.50
2018-02-21T13:33:11.667Z,22.80
2018-02-21T13:35:41.274Z,23.27
2018-02-21T13:38:11.295Z,21.50
2018-02-21T13:40:40.783Z,21.13
2018-02-21T13:43:13.728Z,19.07
2018-02-21T13:45:45.288Z,19.50
2018-02-21T13:48:15.163Z,20.03
2018-02-21T13:50:45.139Z,20.07
2018-02-21T13:53:14.905Z,20.23
2018-02-21T13:55:44.648Z,20.20
2018-02-21T13:58:14.289Z,20.50
2018-02-21T14:00:44.305Z,20.37
2018-02-21T14:03:13.783Z,19.67
2018-02-21T14:05:43.498Z,20.03
2018-02-21T14:08:13.531Z,21.07
2018-02-21T14:10:42.959Z,20.20
2018-02-21T14:13:12.715Z,19.90
2018-02-21T14:15:42.669Z,19.80
2018-02-21T14:18:12.805Z,20.87
2018-02-21T14:20:42.738Z,21.08
2018-02-21T14:23:12.835Z,21.08
2018-02-21T14:25:42.388Z,24.40
2018-02-21T14:28:11.883Z,24.00
2018-02-21T14:30:42.079Z,24.40
2018-02-21T14:33:11.516Z,19.47
2018-02-21T14:35:41.025Z,23.33
2018-02-21T14:38:10.928Z,20.77
2018-02-21T14:40:40.478Z,21.20
2018-02-21T14:43:10.025Z,20.95
2018-02-21T14:45:39.865Z,22.20
2018-02-21T14:48:11.648Z,21.58
2018-02-21T14:50:41.168Z,22.67
2018-02-21T14:53:12.019Z,21.02
2018-02-21T14:55:41.566Z,20.45
2018-02-21T14:58:11.101Z,20.83
2018-02-21T15:00:40.966Z,20.40
2018-02-21T15:03:10.493Z,19.12
2018-02-21T15:05:39.995Z,17.95
2018-02-21T15:08:09.875Z,19.27
2018-02-21T15:10:40.294Z,19.55
2018-02-21T15:13:10.185Z,18.45
2018-02-21T15:15:40.069Z,19.55
2018-02-21T15:18:10.644Z,19.75
2018-02-21T15:20:40.120Z,18.25
2018-02-21T15:23:11.021Z,18.42
2018-02-21T15:25:40.913Z,18.10
2018-02-21T15:28:10.425Z,16.70
2018-02-21T15:30:40.013Z,17.37
2018-02-21T15:33:10.323Z,17.90
2018-02-21T15:35:40.091Z,16.17
2018-02-21T15:38:10.525Z,15.90
2018-02-21T15:40:40.456Z,15.13
2018-02-21T15:43:09.991Z,14.23
2018-02-21T15:45:39.465Z,14.40
2018-02-21T15:48:09.406Z,14.10
2018-02-21T15:50:38.966Z,14.00
2018-02-21T15:53:08.485Z,14.20
2018-02-21T15:55:37.949Z,14.80
2018-02-21T15:58:07.865Z,15.65
2018-02-21T16:00:38.111Z,15.68
2018-02-21T16:03:07.710Z,15.40
2018-02-21T16:05:37.297Z,14.80
2018-02-21T16:08:08.194Z,14.85
2018-02-21T16:10:37.698Z,13.75
2018-02-21T16:13:07.343Z,13.48
2018-02-21T16:15:36.863Z,13.20
2018-02-21T16:18:07.614Z,13.00
2018-02-21T16:20:37.520Z,13.93
2018-02-21T16:23:07.061Z,12.45
2018-02-21T16:25:36.542Z,17.42
2018-02-21T16:28:07.129Z,16.23
2018-02-21T16:30:36.763Z,16.15
2018-02-21T16:33:06.601Z,15.35
2018-02-21T16:35:36.038Z,20.85
2018-02-21T16:38:05.525Z,14.95
2018-02-21T16:40:35.040Z,13.90
2018-02-21T16:43:04.726Z,13.35
2018-02-21T16:45:34.809Z,12.80
2018-02-21T16:48:04.953Z,12.30
2018-02-21T16:50:35.138Z,12.45
2018-02-21T16:53:04.820Z,12.48
2018-02-21T16:55:34.899Z,12.63
2018-02-21T16:58:04.567Z,13.68
2018-02-21T17:00:34.704Z,12.30
2018-02-21T17:03:05.035Z,13.45
2018-02-21T17:05:34.798Z,14.40
2018-02-21T17:08:04.623Z,13.13
2018-02-21T17:10:35.193Z,15.27
2018-02-21T17:13:05.136Z,13.10
2018-02-21T17:15:34.570Z,13.48
2018-02-21T17:18:04.733Z,13.52
2018-02-21T17:20:34.222Z,13.57
2018-02-21T17:23:04.507Z,14.60
2018-02-21T17:25:34.845Z,14.70
2018-02-21T17:28:04.630Z,13.20
2018-02-21T17:30:34.075Z,13.75
2018-02-21T17:33:03.627Z,14.20
2018-02-21T17:35:33.117Z,15.18
2018-02-21T17:38:04.702Z,14.32
2018-02-21T17:40:35.040Z,13.00
2018-02-21T17:43:04.580Z,13.38
2018-02-21T17:45:38.128Z,12.48
2018-02-21T17:48:19.841Z,11.90
2018-02-21T17:50:53.282Z,12.82
2018-02-21T17:53:25.835Z,12.93
2018-02-21T17:55:55.641Z,13.35
2018-02-21T17:58:26.046Z,13.40
2018-02-21T18:00:56.358Z,11.57
2018-02-21T18:03:26.415Z,12.45
2018-02-21T18:05:56.659Z,12.95
2018-02-21T18:08:26.733Z,12.82
2018-02-21T18:10:56.328Z,12.32
2018-02-21T18:13:27.137Z,12.63
2018-02-21T18:15:56.891Z,13.13
2018-02-21T18:18:26.778Z,14.25
2018-02-21T18:20:56.588Z,13.85
2018-02-21T18:23:26.704Z,12.43
2018-02-21T18:25:56.483Z,13.48
2018-02-21T18:28:26.785Z,12.15
2018-02-21T18:30:56.562Z,12.02
2018-02-21T18:33:26.925Z,12.20
2018-02-21T18:35:56.613Z,12.82
2018-02-21T18:38:26.174Z,12.65
2018-02-21T18:40:55.735Z,12.82
2018-02-21T18:43:25.302Z,12.48
2018-02-21T18:45:54.771Z,11.95
2018-02-21T18:48:24.538Z,12.45
2018-02-21T18:50:54.127Z,12.32
2018-02-21T18:53:23.681Z,13.15
2018-02-21T18:55:54.910Z,14.85
2018-02-21T18:58:24.781Z,14.35
2018-02-21T19:00:54.198Z,14.00
2018-02-21T19:03:24.354Z,16.73
2018-02-21T19:05:54.362Z,21.55
2018-02-21T19:08:24.236Z,15.43
2018-02-21T19:10:54.350Z,15.45
2018-02-21T19:13:23.984Z,13.90
2018-02-21T19:15:53.683Z,18.55
2018-02-21T19:18:23.484Z,18.62
2018-02-21T19:20:53.010Z,16.80
2018-02-21T19:23:22.884Z,17.45
2018-02-21T19:25:52.503Z,15.05
2018-02-21T19:28:22.367Z,14.05
2018-02-21T19:30:53.525Z,12.98
2018-02-21T19:33:23.430Z,12.13
2018-02-21T19:35:52.860Z,12.02
2018-02-21T19:38:22.328Z,12.68
2018-02-21T19:40:51.996Z,12.35
2018-02-21T19:43:21.983Z,14.02
2018-02-21T19:45:51.483Z,13.80
2018-02-21T19:48:21.410Z,12.68
2018-02-21T19:50:50.937Z,12.80
2018-02-21T19:53:20.792Z,13.50
2018-02-21T19:55:50.354Z,12.82
2018-02-21T19:58:19.916Z,13.00
2018-02-21T20:00:49.656Z,12.35
2018-02-21T20:03:19.286Z,13.00
2018-02-21T20:05:49.036Z,12.75
2018-02-21T20:08:19.079Z,11.85
2018-02-21T20:10:48.994Z,12.30
2018-02-21T20:13:18.532Z,13.62
2018-02-21T20:15:48.353Z,12.32
2018-02-21T20:18:17.906Z,14.90
2018-02-21T20:20:47.503Z,17.55
2018-02-21T20:23:17.639Z,17.50
2018-02-21T20:25:47.345Z,15.90
2018-02-21T20:28:17.135Z,15.50
2018-02-21T20:30:47.199Z,13.70
2018-02-21T20:33:16.871Z,13.02
2018-02-21T20:35:46.710Z,12.75
2018-02-21T20:38:16.960Z,12.93
2018-02-21T20:40:46.443Z,14.40
2018-02-21T20:43:15.908Z,14.45
2018-02-21T20:45:45.840Z,13.62
2018-02-21T20:48:15.556Z,14.98
2018-02-21T20:50:45.314Z,15.27
2018-02-21T20:53:15.166Z,15.57
2018-02-21T20:55:44.665Z,16.23
2018-02-21T20:58:14.191Z,16.98
2018-02-21T21:00:44.269Z,17.15
2018-02-21T21:03:15.169Z,15.70
2018-02-21T21:05:44.880Z,14.63
2018-02-21T21:08:14.792Z,14.00
2018-02-21T21:10:44.380Z,15.50
2018-02-21T21:13:13.880Z,16.30
2018-02-21T21:15:43.811Z,16.67
2018-02-21T21:18:13.405Z,14.35
2018-02-21T21:20:43.015Z,14.25
2018-02-21T21:23:13.825Z,14.40
2018-02-21T21:25:43.802Z,17.42
2018-02-21T21:28:13.513Z,16.35
2018-02-21T21:30:43.463Z,14.82
2018-02-21T21:33:13.502Z,16.75
2018-02-21T21:35:43.431Z,17.67
2018-02-21T21:38:13.779Z,15.70
2018-02-21T21:40:43.414Z,14.32
2018-02-21T21:43:14.106Z,15.25
2018-02-21T21:45:44.287Z,14.87
2018-02-21T21:48:13.901Z,15.82
2018-02-21T21:50:43.344Z,19.08
2018-02-21T21:53:13.389Z,20.23
2018-02-21T21:55:42.941Z,23.73
2018-02-21T21:58:12.429Z,26.92
2018-02-21T22:00:42.476Z,22.37
2018-02-21T22:03:12.726Z,19.80
2018-02-21T22:05:42.616Z,26.35
2018-02-21T22:08:12.523Z,26.33
2018-02-21T22:10:42.054Z,35.25
2018-02-21T22:13:11.624Z,31.62
2018-02-21T22:15:41.633Z,40.15
2018-02-21T22:18:11.515Z,45.15
2018-02-21T22:20:40.986Z,35.35
2018-02-21T22:23:11.214Z,21.35
2018-02-21T22:25:41.132Z,22.65
2018-02-21T22:28:10.986Z,23.30
2018-02-21T22:30:41.190Z,20.90
2018-02-21T22:33:11.113Z,20.85
2018-02-21T22:35:40.883Z,19.87
2018-02-21T22:38:11.234Z,23.65
2018-02-21T22:40:41.048Z,20.37
2018-02-21T22:43:10.525Z,20.23
2018-02-21T22:45:40.433Z,21.25
2018-02-21T22:48:10.965Z,20.00
2018-02-21T22:50:40.698Z,19.95
2018-02-21T22:53:11.423Z,21.20
2018-02-21T22:55:41.274Z,22.02
2018-02-21T22:58:11.181Z,23.10
2018-02-21T23:00:41.104Z,23.27
2018-02-21T23:03:11.053Z,22.70
2018-02-21T23:05:41.098Z,21.50
2018-02-21T23:08:10.859Z,24.00
2018-02-21T23:10:40.593Z,24.17
2018-02-21T23:13:10.822Z,21.35
2018-02-21T23:15:40.757Z,24.05
2018-02-21T23:18:10.630Z,25.15
2018-02-21T23:20:40.187Z,23.23
2018-02-21T23:23:10.388Z,18.48
2018-02-21T23:25:40.348Z,19.55
2018-02-21T23:28:10.182Z,18.02
2018-02-21T23:30:40.622Z,18.25
2018-02-21T23:33:11.108Z,22.75
2018-02-21T23:35:41.013Z,17.70
2018-02-21T23:38:11.504Z,16.90
2018-02-21T23:40:42.037Z,18.20
2018-02-21T23:43:11.729Z,17.42
2018-02-21T23:45:42.077Z,17.83
2018-02-21T23:48:12.452Z,16.27
2018-02-21T23:50:42.142Z,19.83
2018-02-21T23:53:12.651Z,18.33
2018-02-21T23:55:42.769Z,16.80
2018-02-21T23:58:12.408Z,17.92
